createdAt,value
2023-05-18T00:00:54.156Z,9.30
2023-05-18T00:03:43.959Z,9.23
2023-05-18T00:06:33.416Z,9.20
2023-05-18T00:09:22.714Z,9.00
2023-05-18T00:12:12.080Z,9.30
2023-05-18T00:15:01.432Z,9.30
2023-05-18T00:17:53.491Z,9.60
2023-05-18T00:20:43.746Z,9.70
2023-05-18T00:23:33.206Z,9.30
2023-05-18T00:26:22.613Z,9.30
2023-05-18T00:29:14.343Z,9.03
2023-05-18T00:32:03.707Z,9.27
2023-05-18T00:34:54.456Z,9.40
2023-05-18T00:37:45.517Z,8.90
2023-05-18T00:40:34.918Z,9.77
2023-05-18T00:43:24.223Z,9.10
2023-05-18T00:46:13.619Z,9.50
2023-05-18T00:49:03.638Z,9.27
2023-05-18T00:51:55.417Z,9.43
2023-05-18T00:54:47.685Z,9.07
2023-05-18T00:57:38.356Z,9.27
2023-05-18T01:00:28.417Z,9.40
2023-05-18T01:03:21.336Z,9.00
2023-05-18T01:06:13.011Z,9.00
2023-05-18T01:09:06.883Z,9.40
2023-05-18T01:12:03.677Z,9.20
2023-05-18T01:15:05.300Z,9.10
2023-05-18T01:18:14.906Z,9.57
2023-05-18T01:21:19.424Z,8.90
2023-05-18T01:24:26.781Z,9.00
2023-05-18T01:27:24.655Z,9.03
2023-05-18T01:30:18.045Z,9.10
2023-05-18T01:33:09.873Z,9.30
2023-05-18T01:35:59.271Z,9.50
2023-05-18T01:38:49.453Z,9.13
2023-05-18T01:41:44.736Z,9.00
2023-05-18T01:44:41.550Z,9.17
2023-05-18T01:47:34.764Z,9.07
2023-05-18T01:50:32.992Z,9.10
2023-05-18T01:53:27.265Z,9.20
2023-05-18T01:56:16.943Z,9.40
2023-05-18T01:59:06.645Z,9.47
2023-05-18T02:02:01.052Z,9.10
2023-05-18T02:04:50.668Z,9.37
2023-05-18T02:07:40.807Z,9.00
2023-05-18T02:10:31.180Z,9.30
2023-05-18T02:13:20.595Z,9.10
2023-05-18T02:16:10.706Z,9.30
2023-05-18T02:19:01.479Z,9.50
2023-05-18T02:21:52.864Z,9.50
2023-05-18T02:24:42.326Z,9.20
2023-05-18T02:27:31.757Z,9.80
2023-05-18T02:30:21.850Z,9.83
2023-05-18T02:33:13.173Z,9.30
2023-05-18T02:36:04.295Z,9.30
2023-05-18T02:38:53.724Z,9.50
2023-05-18T02:41:43.035Z,9.13
2023-05-18T02:44:32.524Z,9.17
2023-05-18T02:47:21.838Z,9.20
2023-05-18T02:50:13.416Z,9.33
2023-05-18T02:53:05.489Z,9.17
2023-05-18T02:55:58.104Z,9.20
2023-05-18T02:58:57.740Z,9.30
2023-05-18T03:01:55.022Z,9.07
2023-05-18T03:04:44.408Z,9.73
2023-05-18T03:07:33.857Z,9.30
2023-05-18T03:10:25.141Z,9.27
2023-05-18T03:13:14.738Z,9.20
2023-05-18T03:16:04.067Z,9.23
2023-05-18T03:18:53.604Z,9.53
2023-05-18T03:21:43.952Z,9.40
2023-05-18T03:24:40.083Z,9.50
2023-05-18T03:27:34.139Z,9.40
2023-05-18T03:30:24.767Z,9.33
2023-05-18T03:33:14.425Z,9.30
2023-05-18T03:36:06.333Z,9.33
2023-05-18T03:38:55.811Z,9.63
2023-05-18T03:41:45.295Z,9.20
2023-05-18T03:44:36.131Z,9.27
2023-05-18T03:47:25.993Z,9.77
2023-05-18T03:50:15.781Z,9.60
2023-05-18T03:53:05.442Z,9.43
2023-05-18T03:55:54.753Z,9.57
2023-05-18T03:58:44.497Z,9.63
2023-05-18T04:01:35.376Z,9.53
2023-05-18T04:04:27.272Z,9.77
2023-05-18T04:07:17.525Z,9.50
2023-05-18T04:10:08.589Z,9.53
2023-05-18T04:12:58.233Z,9.77
2023-05-18T04:15:47.696Z,9.60
2023-05-18T04:18:38.546Z,9.80
2023-05-18T04:21:29.575Z,9.80
2023-05-18T04:24:19.521Z,9.70
2023-05-18T04:27:10.589Z,9.47
2023-05-18T04:29:59.913Z,9.50
2023-05-18T04:32:49.358Z,9.73
2023-05-18T04:35:40.069Z,9.73
2023-05-18T04:38:29.711Z,9.53
2023-05-18T04:41:20.582Z,9.73
2023-05-18T04:44:10.600Z,9.77
2023-05-18T04:47:00.061Z,9.80
2023-05-18T04:49:52.320Z,9.50
2023-05-18T04:52:49.453Z,9.03
2023-05-18T04:55:42.776Z,9.50
2023-05-18T04:58:36.163Z,9.33
2023-05-18T05:01:25.569Z,9.50
2023-05-18T05:04:15.290Z,9.60
2023-05-18T05:07:04.659Z,9.20
2023-05-18T05:09:56.946Z,9.10
2023-05-18T05:12:49.346Z,9.10
2023-05-18T05:15:39.011Z,8.87
2023-05-18T05:18:28.407Z,8.73
2023-05-18T05:21:18.068Z,9.20
2023-05-18T05:24:08.517Z,8.97
2023-05-18T05:26:59.982Z,8.70
2023-05-18T05:29:50.352Z,8.70
2023-05-18T05:32:39.957Z,8.77
2023-05-18T05:35:31.886Z,8.53
2023-05-18T05:38:23.109Z,8.50
2023-05-18T05:41:13.268Z,8.70
2023-05-18T05:44:05.586Z,8.60
2023-05-18T05:46:55.851Z,8.67
2023-05-18T05:49:45.811Z,8.53
2023-05-18T05:52:35.182Z,8.73
2023-05-18T05:55:27.204Z,8.77
2023-05-18T05:58:16.756Z,8.73
2023-05-18T06:01:12.377Z,8.70
2023-05-18T06:04:04.226Z,8.73
2023-05-18T06:06:54.177Z,8.37
2023-05-18T06:09:44.124Z,8.80
2023-05-18T06:12:33.564Z,8.80
2023-05-18T06:15:23.181Z,8.43
2023-05-18T06:18:14.515Z,8.70
2023-05-18T06:21:04.188Z,8.53
2023-05-18T06:23:53.628Z,8.90
2023-05-18T06:26:59.843Z,8.80
2023-05-18T06:30:01.921Z,8.73
2023-05-18T06:33:13.698Z,8.90
2023-05-18T06:36:03.957Z,9.00
2023-05-18T06:38:53.397Z,8.80
2023-05-18T06:41:45.029Z,8.50
2023-05-18T06:44:41.614Z,8.43
2023-05-18T06:47:39.666Z,8.53
2023-05-18T06:50:30.378Z,8.67
2023-05-18T06:53:19.829Z,8.60
2023-05-18T06:56:11.703Z,8.40
2023-05-18T06:59:01.627Z,8.47
2023-05-18T07:01:51.880Z,8.37
2023-05-18T07:04:41.624Z,8.60
2023-05-18T07:07:32.423Z,8.50
2023-05-18T07:10:22.656Z,8.40
2023-05-18T07:13:12.430Z,8.20
2023-05-18T07:16:02.095Z,8.33
2023-05-18T07:18:51.550Z,8.50
2023-05-18T07:21:41.060Z,8.27
2023-05-18T07:24:32.049Z,8.80
2023-05-18T07:27:21.385Z,8.70
2023-05-18T07:30:12.030Z,8.90
2023-05-18T07:33:02.053Z,9.00
2023-05-18T07:35:51.535Z,8.33
2023-05-18T07:38:41.127Z,8.40
2023-05-18T07:41:32.357Z,8.80
2023-05-18T07:44:21.713Z,8.53
2023-05-18T07:47:11.668Z,8.50
2023-05-18T07:50:01.305Z,8.60
2023-05-18T07:52:50.738Z,8.77
2023-05-18T07:55:42.110Z,8.20
2023-05-18T07:58:32.879Z,8.37
2023-05-18T08:01:27.244Z,8.10
2023-05-18T08:04:16.735Z,8.60
2023-05-18T08:07:06.315Z,8.37
2023-05-18T08:09:55.647Z,8.50
2023-05-18T08:12:45.001Z,8.50
2023-05-18T08:15:37.211Z,8.30
2023-05-18T08:18:26.944Z,8.03
2023-05-18T08:21:16.719Z,8.37
2023-05-18T08:24:08.477Z,8.67
2023-05-18T08:26:57.844Z,8.50
2023-05-18T08:29:47.354Z,8.50
2023-05-18T08:32:38.226Z,8.90
2023-05-18T08:35:27.735Z,8.93
2023-05-18T08:38:17.742Z,8.50
2023-05-18T08:41:15.793Z,8.83
2023-05-18T08:44:15.048Z,8.60
2023-05-18T08:47:10.585Z,8.33
2023-05-18T08:50:04.152Z,8.60
2023-05-18T08:52:57.088Z,8.60
2023-05-18T08:55:47.651Z,8.23
2023-05-18T08:58:43.857Z,8.43
2023-05-18T09:01:33.840Z,8.40
2023-05-18T09:04:24.084Z,8.90
2023-05-18T09:07:15.612Z,8.87
2023-05-18T09:10:05.981Z,8.80
2023-05-18T09:12:57.829Z,9.00
2023-05-18T09:15:47.696Z,9.00
2023-05-18T09:18:37.535Z,8.73
2023-05-18T09:21:27.301Z,8.80
2023-05-18T09:24:19.403Z,8.70
2023-05-18T09:27:09.258Z,8.60
2023-05-18T09:29:59.852Z,8.57
2023-05-18T09:32:49.354Z,8.30
2023-05-18T09:35:39.247Z,8.30
2023-05-18T09:38:29.937Z,8.70
2023-05-18T09:41:21.874Z,8.20
2023-05-18T09:44:12.684Z,8.70
2023-05-18T09:47:02.410Z,8.90
2023-05-18T09:49:51.827Z,9.03
2023-05-18T09:52:45.996Z,9.00
2023-05-18T09:55:39.880Z,8.80
2023-05-18T09:58:33.975Z,9.17
2023-05-18T10:01:23.448Z,9.00
2023-05-18T10:04:12.930Z,9.20
2023-05-18T10:07:03.286Z,8.43
2023-05-18T10:10:05.822Z,8.17
2023-05-18T10:12:58.653Z,8.93
2023-05-18T10:15:56.397Z,8.93
2023-05-18T10:18:46.570Z,8.40
2023-05-18T10:21:38.120Z,8.93
2023-05-18T10:24:30.911Z,9.10
2023-05-18T10:27:27.376Z,8.70
2023-05-18T10:30:17.686Z,8.40
2023-05-18T10:33:20.593Z,8.50
2023-05-18T10:36:19.809Z,8.67
2023-05-18T10:39:09.997Z,8.63
2023-05-18T10:42:01.845Z,8.50
2023-05-18T10:44:54.661Z,9.03
2023-05-18T10:47:45.488Z,8.30
2023-05-18T10:50:38.843Z,8.60
2023-05-18T10:53:29.484Z,8.80
2023-05-18T10:56:19.038Z,8.60
2023-05-18T10:59:09.589Z,8.40
2023-05-18T11:02:00.511Z,8.00
2023-05-18T11:04:54.010Z,8.90
2023-05-18T11:07:47.392Z,8.23
2023-05-18T11:10:42.470Z,8.30
2023-05-18T11:13:33.591Z,8.50
2023-05-18T11:16:25.460Z,8.50
2023-05-18T11:19:14.976Z,8.27
2023-05-18T11:22:13.539Z,8.60
2023-05-18T11:25:09.800Z,8.60
2023-05-18T11:28:02.501Z,8.50
2023-05-18T11:30:52.818Z,8.43
2023-05-18T11:33:43.096Z,8.67
2023-05-18T11:36:46.439Z,8.50
2023-05-18T11:39:37.700Z,8.63
2023-05-18T11:42:35.580Z,8.60
2023-05-18T11:45:25.178Z,9.00
2023-05-18T11:48:14.696Z,8.80
2023-05-18T11:51:09.368Z,8.40
2023-05-18T11:53:59.564Z,8.60
2023-05-18T11:56:49.843Z,8.80
2023-05-18T11:59:43.114Z,8.40
2023-05-18T12:02:33.990Z,8.50
2023-05-18T12:05:23.835Z,8.70
2023-05-18T12:08:13.857Z,8.60
2023-05-18T12:11:03.856Z,8.70
2023-05-18T12:13:53.592Z,8.50
2023-05-18T12:16:45.018Z,8.43
2023-05-18T12:19:40.413Z,8.80
2023-05-18T12:22:29.832Z,8.30
2023-05-18T12:25:19.670Z,8.77
2023-05-18T12:28:10.034Z,8.90
2023-05-18T12:31:00.212Z,8.97
2023-05-18T12:33:51.761Z,8.80
2023-05-18T12:36:44.642Z,8.50
2023-05-18T12:39:34.002Z,9.00
2023-05-18T12:42:23.658Z,8.70
2023-05-18T12:45:13.419Z,9.40
2023-05-18T12:48:06.456Z,8.63
2023-05-18T12:51:01.839Z,8.80
2023-05-18T12:53:53.814Z,8.70
2023-05-18T12:57:01.463Z,9.20
2023-05-18T12:59:51.644Z,8.67
2023-05-18T13:02:41.303Z,8.60
2023-05-18T13:05:31.083Z,9.10
2023-05-18T13:08:22.797Z,8.60
2023-05-18T13:11:16.747Z,8.80
2023-05-18T13:14:08.930Z,8.90
2023-05-18T13:16:58.662Z,8.57
2023-05-18T13:19:48.076Z,9.17
2023-05-18T13:22:37.454Z,8.90
2023-05-18T13:25:28.393Z,9.47
2023-05-18T13:28:19.269Z,8.80
2023-05-18T13:31:09.428Z,9.40
2023-05-18T13:34:00.495Z,9.10
2023-05-18T13:36:49.860Z,9.00
2023-05-18T13:39:39.287Z,9.23
2023-05-18T13:42:30.034Z,9.00
2023-05-18T13:45:21.504Z,9.10
2023-05-18T13:48:11.350Z,8.77
2023-05-18T13:51:00.964Z,8.67
2023-05-18T13:53:50.492Z,8.93
2023-05-18T13:56:39.845Z,8.90
2023-05-18T13:59:34.498Z,8.80
2023-05-18T14:02:23.945Z,9.23
2023-05-18T14:05:13.748Z,8.90
2023-05-18T14:08:03.122Z,8.90
2023-05-18T14:10:52.503Z,9.00
2023-05-18T14:13:41.855Z,8.63
2023-05-18T14:16:32.628Z,8.90
2023-05-18T14:19:22.181Z,9.10
2023-05-18T14:22:11.672Z,8.60
2023-05-18T14:25:01.923Z,9.13
2023-05-18T14:27:51.372Z,8.73
2023-05-18T14:30:41.083Z,8.70
2023-05-18T14:33:31.778Z,9.10
2023-05-18T14:36:22.315Z,9.37
2023-05-18T14:39:11.780Z,8.83
2023-05-18T14:42:01.232Z,9.00
2023-05-18T14:44:50.610Z,8.77
2023-05-18T14:47:39.966Z,8.90
2023-05-18T14:50:30.960Z,8.67
2023-05-18T14:53:20.612Z,8.53
2023-05-18T14:56:10.040Z,8.93
2023-05-18T14:58:59.421Z,8.50
2023-05-18T15:01:48.814Z,8.57
2023-05-18T15:04:38.420Z,9.10
2023-05-18T15:07:29.276Z,8.93
2023-05-18T15:10:18.586Z,9.07
2023-05-18T15:13:07.971Z,8.90
2023-05-18T15:15:57.859Z,9.47
2023-05-18T15:18:47.388Z,9.20
2023-05-18T15:21:36.818Z,9.00
2023-05-18T15:24:27.593Z,9.07
2023-05-18T15:27:17.062Z,9.60
2023-05-18T15:30:11.423Z,9.17
2023-05-18T15:33:02.242Z,8.90
2023-05-18T15:35:51.805Z,9.00
2023-05-18T15:38:41.182Z,9.00
2023-05-18T15:41:34.391Z,8.90
2023-05-18T15:44:23.797Z,9.00
2023-05-18T15:47:13.205Z,8.90
2023-05-18T15:50:02.656Z,9.00
2023-05-18T15:52:52.375Z,9.10
2023-05-18T15:55:41.845Z,9.33
2023-05-18T15:58:33.134Z,8.40
2023-05-18T16:01:22.834Z,9.10
2023-05-18T16:04:12.611Z,9.00
2023-05-18T16:07:02.741Z,8.80
2023-05-18T16:09:52.210Z,9.00
2023-05-18T16:12:41.545Z,8.83
2023-05-18T16:15:34.116Z,8.80
2023-05-18T16:18:23.514Z,8.53
2023-05-18T16:21:13.149Z,8.97
2023-05-18T16:24:02.542Z,8.90
2023-05-18T16:26:51.946Z,8.90
2023-05-18T16:29:41.532Z,8.80
2023-05-18T16:32:32.583Z,9.20
2023-05-18T16:35:23.666Z,8.70
2023-05-18T16:38:14.179Z,8.63
2023-05-18T16:41:03.510Z,9.70
2023-05-18T16:43:52.947Z,9.10
2023-05-18T16:46:42.322Z,9.20
2023-05-18T16:49:33.129Z,8.90
2023-05-18T16:52:22.540Z,8.80
2023-05-18T16:55:15.165Z,8.60
2023-05-18T16:58:04.743Z,8.90
2023-05-18T17:00:54.353Z,8.70
2023-05-18T17:03:43.741Z,9.10
2023-05-18T17:06:34.676Z,8.87
2023-05-18T17:09:24.347Z,8.90
2023-05-18T17:12:14.034Z,8.73
2023-05-18T17:15:03.486Z,8.80
2023-05-18T17:17:53.149Z,9.00
2023-05-18T17:20:42.525Z,9.17
2023-05-18T17:23:33.486Z,8.87
2023-05-18T17:26:25.022Z,9.13
2023-05-18T17:29:17.110Z,9.60
2023-05-18T17:32:08.011Z,8.90
2023-05-18T17:34:57.392Z,8.73
2023-05-18T17:37:48.866Z,8.80
2023-05-18T17:40:39.645Z,9.77
2023-05-18T17:43:28.960Z,9.73
2023-05-18T17:46:18.478Z,9.90
2023-05-18T17:49:07.922Z,9.43
2023-05-18T17:51:58.554Z,9.50
2023-05-18T17:54:48.605Z,9.00
2023-05-18T17:57:45.049Z,9.20
2023-05-18T18:00:34.748Z,9.10
2023-05-18T18:03:24.233Z,9.00
2023-05-18T18:06:13.613Z,9.20
2023-05-18T18:09:04.808Z,9.20
2023-05-18T18:11:57.127Z,9.17
2023-05-18T18:14:47.900Z,9.13
2023-05-18T18:17:37.353Z,9.00
2023-05-18T18:20:27.175Z,9.37
2023-05-18T18:23:16.829Z,9.10
2023-05-18T18:26:07.538Z,8.77
2023-05-18T18:28:56.890Z,9.00
2023-05-18T18:31:47.589Z,9.07
2023-05-18T18:34:36.946Z,9.13
2023-05-18T18:37:27.643Z,9.27
2023-05-18T18:40:17.780Z,9.50
2023-05-18T18:43:07.410Z,9.90
2023-05-18T18:45:57.938Z,10.10
2023-05-18T18:48:48.788Z,9.60
2023-05-18T18:51:38.151Z,9.30
2023-05-18T18:54:27.521Z,9.53
2023-05-18T18:57:16.908Z,9.30
2023-05-18T19:00:11.091Z,9.03
2023-05-18T19:03:00.477Z,9.20
2023-05-18T19:05:51.716Z,9.00
2023-05-18T19:08:41.120Z,9.63
2023-05-18T19:11:30.523Z,9.20
2023-05-18T19:14:20.044Z,9.50
2023-05-18T19:17:09.476Z,9.30
2023-05-18T19:19:58.991Z,9.40
2023-05-18T19:22:49.745Z,9.30
2023-05-18T19:25:39.128Z,9.57
2023-05-18T19:28:28.680Z,9.80
2023-05-18T19:31:18.056Z,9.30
2023-05-18T19:34:07.545Z,9.10
2023-05-18T19:36:56.979Z,9.03
2023-05-18T19:39:47.699Z,9.30
2023-05-18T19:42:37.102Z,9.37
2023-05-18T19:45:26.708Z,9.07
2023-05-18T19:48:17.510Z,9.10
2023-05-18T19:51:07.190Z,9.20
2023-05-18T19:53:56.552Z,9.10
2023-05-18T19:56:47.322Z,9.00
2023-05-18T19:59:37.263Z,9.23
2023-05-18T20:02:26.905Z,9.00
2023-05-18T20:05:18.862Z,8.93
2023-05-18T20:08:10.044Z,9.43
2023-05-18T20:11:00.591Z,9.20
2023-05-18T20:13:51.377Z,9.13
2023-05-18T20:16:41.721Z,9.10
2023-05-18T20:19:31.418Z,9.37
2023-05-18T20:22:21.369Z,9.87
2023-05-18T20:25:12.160Z,10.30
2023-05-18T20:28:03.252Z,10.00
2023-05-18T20:30:54.221Z,9.50
2023-05-18T20:33:44.517Z,9.40
2023-05-18T20:36:35.819Z,9.30
2023-05-18T20:39:26.089Z,9.77
2023-05-18T20:42:15.726Z,9.10
2023-05-18T20:45:05.754Z,9.50
2023-05-18T20:47:56.882Z,9.67
2023-05-18T20:50:46.262Z,9.10
2023-05-18T20:53:35.652Z,9.50
2023-05-18T20:56:26.586Z,9.27
2023-05-18T20:59:16.356Z,9.70
2023-05-18T21:02:06.319Z,9.50
2023-05-18T21:04:57.840Z,9.60
2023-05-18T21:07:48.818Z,9.50
2023-05-18T21:10:38.600Z,9.50
2023-05-18T21:13:27.939Z,9.53
2023-05-18T21:16:17.462Z,9.33
2023-05-18T21:19:06.961Z,9.60
2023-05-18T21:21:57.781Z,10.13
2023-05-18T21:24:47.203Z,9.87
2023-05-18T21:27:37.401Z,10.40
2023-05-18T21:30:26.844Z,10.40
2023-05-18T21:33:16.251Z,10.97
2023-05-18T21:36:09.078Z,10.77
2023-05-18T21:38:59.811Z,9.90
2023-05-18T21:41:49.265Z,10.40
2023-05-18T21:44:38.637Z,9.97
2023-05-18T21:47:28.139Z,9.73
2023-05-18T21:50:17.834Z,9.73
2023-05-18T21:53:07.178Z,9.80
2023-05-18T21:55:57.957Z,9.60
2023-05-18T21:58:47.334Z,9.60
2023-05-18T22:01:36.814Z,9.10
2023-05-18T22:04:26.503Z,9.23
2023-05-18T22:07:16.311Z,9.23
2023-05-18T22:10:06.445Z,9.40
2023-05-18T22:12:57.157Z,9.40
2023-05-18T22:15:46.543Z,9.40
2023-05-18T22:18:35.949Z,9.23
2023-05-18T22:21:25.492Z,9.53
2023-05-18T22:24:14.842Z,9.50
2023-05-18T22:27:04.471Z,9.20
2023-05-18T22:29:55.406Z,9.40
2023-05-18T22:32:46.262Z,9.70
2023-05-18T22:35:37.030Z,9.30
2023-05-18T22:38:26.813Z,9.30
2023-05-18T22:41:16.573Z,9.10
2023-05-18T22:44:06.381Z,9.53
2023-05-18T22:46:57.224Z,9.47
2023-05-18T22:49:46.981Z,10.10
2023-05-18T22:52:36.774Z,9.33
2023-05-18T22:55:26.135Z,9.60
2023-05-18T22:58:15.517Z,9.50
2023-05-18T23:01:04.897Z,9.50
2023-05-18T23:03:56.138Z,9.67
2023-05-18T23:06:48.714Z,9.70
2023-05-18T23:09:39.806Z,9.40
2023-05-18T23:12:30.392Z,9.17
2023-05-18T23:15:20.094Z,9.20
2023-05-18T23:18:10.280Z,9.43
2023-05-18T23:21:01.229Z,9.10
2023-05-18T23:23:50.621Z,9.50
2023-05-18T23:26:42.273Z,9.43
2023-05-18T23:29:31.799Z,9.23
2023-05-18T23:32:21.496Z,9.60
2023-05-18T23:35:13.984Z,9.47
2023-05-18T23:38:06.408Z,9.53
2023-05-18T23:40:56.139Z,9.10
2023-05-18T23:43:46.243Z,9.67
2023-05-18T23:46:36.917Z,9.03
2023-05-18T23:49:27.042Z,9.33
2023-05-18T23:52:17.619Z,9.37
2023-05-18T23:55:12.154Z,9.70
2023-05-18T23:58:03.238Z,9.20
